2LL3 weather

Roy Burden Restricted Landing Area
Shirley, Illinois, United States

Public forecast

Using degrees Fahrenheit for public forecast. Weather courtesy of forecast.io.

Closest aviation weather report (METAR) to Roy Burden Restricted Landing Area

Closest report is Central Illinois Regional Airport at Bloomington-Normal, 8.8 nm (16.3 km) NE. Retrieved 2020/07/08 03:56 UTC (20 minutes ago):

KBMI 080356Z AUTO 00000KT 10SM FEW120 24/20 A2998 RMK AO2 SLP143 T02440200

Closest aviation forecast (TAF) to Roy Burden Restricted Landing Area

Closest forecast is Central Illinois Regional Airport at Bloomington-Normal, 8.8 nm (16.3 km) NE. Retrieved 2020-07-08 00:24 UTC (4 hours ago):

TAF KBMI 072323Z 0800/0824 VRB03KT P6SM SCT050 FM081400 19006KT P6SM SCT040